Barhom II — 5IM534 — position and weather

sailwx.info

Track history (hours):
 
Tides and Currents Weather Stations Pressure Air Temp Water Temp Dewpoint Dewpoint Depression Visibility Wind Speed Wind Dir Waves Ship Positions

Barhom II

Last reported at 2016-Feb-10 16:21 UTC. Time now 2016-Feb-11 19:15 UTC.
Position N 43°23' E 003°56'.

Length 83 m; draft 4.1 m.

Type: Cargo ship. MMSI: 677043400.

Date/timePositionNaut miles runAvg speedWind from/ knotsBaromVisibWave heightAir tempDewpointWater temp
2016-Feb-10 16:21N 43°23' E 003°56'910.9
2016-Feb-10 15:33N 43°20' E 004°07'1010.4
2016-Feb-10 14:33N 43°17' E 004°21'10 9.9
2016-Feb-10 13:33N 43°14' E 004°34'10 9.5
2016-Feb-10 12:33N 43°12' E 004°46'9 8.6
2016-Feb-10 11:34N 43°10' E 004°58'8 7.8
2016-Feb-10 10:34N 43°08' E 005°08'7 7.1
2016-Feb-10 09:34N 43°08' E 005°18'75 6.1
2016-Feb-09 21:13N 43°23' E 006°59'6 9.1
2016-Feb-09 20:32N 43°27' E 007°05'9 9.2
2016-Feb-09 19:32N 43°30' E 007°17'9 9.1
2016-Feb-09 18:33N 43°31' E 007°29'66 9.5
2016-Feb-09 11:32N 43°16' E 008°59'1010.0
2016-Feb-09 10:34N 43°12' E 009°11'1010.2
2016-Feb-09 09:34N 43°07' E 009°23'38110.0
2016-Feb-07 19:33N 38°48' E 015°33'1010.5
2016-Feb-07 18:33N 38°39' E 015°38'1110.8
2016-Feb-07 17:33N 38°28' E 015°41'1111.1
2016-Feb-07 16:34N 38°17' E 015°43'1010.0
2016-Feb-07 15:34N 38°09' E 015°36'1110.6
2016-Feb-07 14:33N 37°58' E 015°37'1010.2
2016-Feb-07 13:33N 37°52' E 015°48'  
2016-Feb-03 04:33N 34°25' E 032°27'1210.9
2016-Feb-03 03:28N 34°23' E 032°41'1010.8
2016-Feb-03 02:33N 34°21' E 032°53'1110.6
2016-Feb-03 01:30N 34°18' E 033°06'  
Track history (hours):
 
Tides and Currents Weather Stations Pressure Air Temp Water Temp Dewpoint Dewpoint Depression Visibility Wind Speed Wind Dir Waves Ship Positions

Barhom II

Last reported at 2016-Feb-10 16:21 UTC. Time now 2016-Feb-11 19:15 UTC.
Position N 43°23' E 003°56'.

Length 83 m; draft 4.1 m.

Type: Cargo ship. MMSI: 677043400.

Date/timePositionNaut miles runAvg speedWind from/ knotsBaromVisibWave heightAir tempDewpointWater temp
2016-Feb-10 16:21N 43°23' E 003°56'910.9
2016-Feb-10 15:33N 43°20' E 004°07'1010.4
2016-Feb-10 14:33N 43°17' E 004°21'10 9.9
2016-Feb-10 13:33N 43°14' E 004°34'10 9.5
2016-Feb-10 12:33N 43°12' E 004°46'9 8.6
2016-Feb-10 11:34N 43°10' E 004°58'8 7.8
2016-Feb-10 10:34N 43°08' E 005°08'7 7.1
2016-Feb-10 09:34N 43°08' E 005°18'75 6.1
2016-Feb-09 21:13N 43°23' E 006°59'6 9.1
2016-Feb-09 20:32N 43°27' E 007°05'9 9.2
2016-Feb-09 19:32N 43°30' E 007°17'9 9.1
2016-Feb-09 18:33N 43°31' E 007°29'66 9.5
2016-Feb-09 11:32N 43°16' E 008°59'1010.0
2016-Feb-09 10:34N 43°12' E 009°11'1010.2
2016-Feb-09 09:34N 43°07' E 009°23'38110.0
2016-Feb-07 19:33N 38°48' E 015°33'1010.5
2016-Feb-07 18:33N 38°39' E 015°38'1110.8
2016-Feb-07 17:33N 38°28' E 015°41'1111.1
2016-Feb-07 16:34N 38°17' E 015°43'1010.0
2016-Feb-07 15:34N 38°09' E 015°36'1110.6
2016-Feb-07 14:33N 37°58' E 015°37'1010.2
2016-Feb-07 13:33N 37°52' E 015°48'  
2016-Feb-03 04:33N 34°25' E 032°27'1210.9
2016-Feb-03 03:28N 34°23' E 032°41'1010.8
2016-Feb-03 02:33N 34°21' E 032°53'1110.6
2016-Feb-03 01:30N 34°18' E 033°06'  

Dump ship's entire track history